sensor_id;sensor_type;location;lat;lon;timestamp;P1;durP1;ratioP1;P2;durP2;ratioP2
17967;SDS011;9109;48.050;11.696;2023-09-07T04:08:16;3.83;;;2.72;;
17967;SDS011;9109;48.050;11.696;2023-09-07T04:11:18;4.25;;;2.63;;
17967;SDS011;9109;48.050;11.696;2023-09-07T04:14:20;6.47;;;3.35;;
17967;SDS011;9109;48.050;11.696;2023-09-07T04:17:23;4.68;;;2.88;;
17967;SDS011;9109;48.050;11.696;2023-09-07T04:20:26;4.40;;;2.72;;
17967;SDS011;9109;48.050;11.696;2023-09-07T04:23:29;3.85;;;2.75;;
17967;SDS011;9109;48.050;11.696;2023-09-07T04:26:32;5.32;;;3.00;;
17967;SDS011;9109;48.050;11.696;2023-09-07T04:29:35;4.43;;;2.70;;
17967;SDS011;9109;48.050;11.696;2023-09-07T04:32:37;3.97;;;2.65;;
17967;SDS011;9109;48.050;11.696;2023-09-07T04:35:41;6.32;;;3.10;;
17967;SDS011;9109;48.050;11.696;2023-09-07T04:38:43;7.13;;;3.25;;
17967;SDS011;9109;48.050;11.696;2023-09-07T04:41:45;4.20;;;3.10;;
17967;SDS011;9109;48.050;11.696;2023-09-07T04:44:48;4.93;;;2.92;;
17967;SDS011;9109;48.050;11.696;2023-09-07T04:47:50;7.28;;;3.45;;
17967;SDS011;9109;48.050;11.696;2023-09-07T04:50:58;5.80;;;3.22;;
17967;SDS011;9109;48.050;11.696;2023-09-07T04:54:00;4.40;;;2.97;;
17967;SDS011;9109;48.050;11.696;2023-09-07T04:57:03;10.93;;;3.40;;
17967;SDS011;9109;48.050;11.696;2023-09-07T05:00:06;9.18;;;3.35;;
17967;SDS011;9109;48.050;11.696;2023-09-07T05:03:09;6.15;;;2.95;;
17967;SDS011;9109;48.050;11.696;2023-09-07T05:06:13;5.88;;;3.08;;
17967;SDS011;9109;48.050;11.696;2023-09-07T05:09:16;5.57;;;3.22;;
17967;SDS011;9109;48.050;11.696;2023-09-07T05:12:20;7.95;;;3.10;;
17967;SDS011;9109;48.050;11.696;2023-09-07T05:15:22;5.32;;;3.10;;
17967;SDS011;9109;48.050;11.696;2023-09-07T05:18:24;12.18;;;3.28;;
17967;SDS011;9109;48.050;11.696;2023-09-07T05:21:28;7.38;;;3.28;;
17967;SDS011;9109;48.050;11.696;2023-09-07T05:24:30;5.68;;;3.17;;
17967;SDS011;9109;48.050;11.696;2023-09-07T05:27:33;5.20;;;2.97;;
17967;SDS011;9109;48.050;11.696;2023-09-07T05:30:36;8.15;;;3.90;;
17967;SDS011;9109;48.050;11.696;2023-09-07T05:33:38;5.07;;;3.38;;
17967;SDS011;9109;48.050;11.696;2023-09-07T05:36:42;4.80;;;3.33;;
17967;SDS011;9109;48.050;11.696;2023-09-07T05:39:44;7.38;;;3.65;;
17967;SDS011;9109;48.050;11.696;2023-09-07T05:42:46;4.38;;;2.92;;
17967;SDS011;9109;48.050;11.696;2023-09-07T05:45:48;6.28;;;3.45;;
17967;SDS011;9109;48.050;11.696;2023-09-07T05:48:51;4.90;;;3.05;;
17967;SDS011;9109;48.050;11.696;2023-09-07T05:51:54;5.22;;;3.30;;
17967;SDS011;9109;48.050;11.696;2023-09-07T05:54:56;5.88;;;3.40;;
17967;SDS011;9109;48.050;11.696;2023-09-07T05:57:59;6.70;;;3.63;;
17967;SDS011;9109;48.050;11.696;2023-09-07T06:01:01;6.03;;;3.28;;
17967;SDS011;9109;48.050;11.696;2023-09-07T06:04:05;7.70;;;4.20;;
17967;SDS011;9109;48.050;11.696;2023-09-07T06:07:08;8.57;;;4.00;;
17967;SDS011;9109;48.050;11.696;2023-09-07T06:10:11;12.43;;;4.07;;
17967;SDS011;9109;48.050;11.696;2023-09-07T06:13:13;11.77;;;5.10;;
17967;SDS011;9109;48.050;11.696;2023-09-07T06:16:15;14.55;;;5.60;;
17967;SDS011;9109;48.050;11.696;2023-09-07T06:19:18;8.55;;;5.30;;
17967;SDS011;9109;48.050;11.696;2023-09-07T06:22:21;8.63;;;5.47;;
17967;SDS011;9109;48.050;11.696;2023-09-07T06:25:23;10.45;;;5.78;;
17967;SDS011;9109;48.050;11.696;2023-09-07T06:28:27;8.50;;;5.00;;
17967;SDS011;9109;48.050;11.696;2023-09-07T06:31:29;8.55;;;5.00;;
17967;SDS011;9109;48.050;11.696;2023-09-07T06:34:32;8.32;;;4.93;;
17967;SDS011;9109;48.050;11.696;2023-09-07T06:37:35;9.52;;;5.75;;
17967;SDS011;9109;48.050;11.696;2023-09-07T06:40:40;8.02;;;4.97;;
17967;SDS011;9109;48.050;11.696;2023-09-07T06:43:42;9.75;;;6.13;;
17967;SDS011;9109;48.050;11.696;2023-09-07T06:46:45;11.98;;;7.45;;
17967;SDS011;9109;48.050;11.696;2023-09-07T06:49:47;14.43;;;8.68;;
17967;SDS011;9109;48.050;11.696;2023-09-07T06:52:50;16.50;;;8.60;;
17967;SDS011;9109;48.050;11.696;2023-09-07T06:55:56;17.45;;;8.25;;
17967;SDS011;9109;48.050;11.696;2023-09-07T06:58:59;15.40;;;7.60;;
17967;SDS011;9109;48.050;11.696;2023-09-07T07:02:01;11.65;;;7.85;;
17967;SDS011;9109;48.050;11.696;2023-09-07T07:05:05;11.07;;;6.95;;
17967;SDS011;9109;48.050;11.696;2023-09-07T07:08:10;18.83;;;8.07;;
17967;SDS011;9109;48.050;11.696;2023-09-07T07:11:14;12.75;;;7.88;;
17967;SDS011;9109;48.050;11.696;2023-09-07T07:14:17;12.27;;;8.07;;
17967;SDS011;9109;48.050;11.696;2023-09-07T07:17:19;14.05;;;7.05;;
17967;SDS011;9109;48.050;11.696;2023-09-07T07:20:21;10.35;;;6.78;;
17967;SDS011;9109;48.050;11.696;2023-09-07T07:23:25;9.60;;;6.50;;
17967;SDS011;9109;48.050;11.696;2023-09-07T07:26:28;8.75;;;6.18;;
17967;SDS011;9109;48.050;11.696;2023-09-07T07:29:32;8.95;;;6.40;;
17967;SDS011;9109;48.050;11.696;2023-09-07T07:32:34;13.52;;;6.55;;
17967;SDS011;9109;48.050;11.696;2023-09-07T07:35:36;12.07;;;6.60;;
17967;SDS011;9109;48.050;11.696;2023-09-07T07:38:40;9.60;;;5.65;;
17967;SDS011;9109;48.050;11.696;2023-09-07T07:41:42;10.52;;;5.25;;
17967;SDS011;9109;48.050;11.696;2023-09-07T07:44:46;10.20;;;5.82;;
17967;SDS011;9109;48.050;11.696;2023-09-07T07:47:48;10.10;;;6.03;;
17967;SDS011;9109;48.050;11.696;2023-09-07T07:50:51;10.38;;;6.43;;
17967;SDS011;9109;48.050;11.696;2023-09-07T07:53:55;9.23;;;6.13;;
17967;SDS011;9109;48.050;11.696;2023-09-07T07:56:57;9.98;;;5.80;;
17967;SDS011;9109;48.050;11.696;2023-09-07T07:59:59;9.13;;;5.45;;
17967;SDS011;9109;48.050;11.696;2023-09-07T08:03:04;9.68;;;6.03;;
17967;SDS011;9109;48.050;11.696;2023-09-07T08:06:07;12.57;;;5.75;;
17967;SDS011;9109;48.050;11.696;2023-09-07T08:09:10;9.07;;;5.55;;
17967;SDS011;9109;48.050;11.696;2023-09-07T08:12:13;9.05;;;5.40;;
17967;SDS011;9109;48.050;11.696;2023-09-07T08:15:15;8.88;;;5.22;;
17967;SDS011;9109;48.050;11.696;2023-09-07T08:18:20;10.85;;;5.10;;
17967;SDS011;9109;48.050;11.696;2023-09-07T08:21:23;9.15;;;5.32;;
17967;SDS011;9109;48.050;11.696;2023-09-07T08:24:27;8.70;;;5.45;;
17967;SDS011;9109;48.050;11.696;2023-09-07T08:27:30;9.13;;;5.82;;
17967;SDS011;9109;48.050;11.696;2023-09-07T08:30:32;8.43;;;5.28;;
17967;SDS011;9109;48.050;11.696;2023-09-07T08:33:35;9.88;;;6.35;;
17967;SDS011;9109;48.050;11.696;2023-09-07T08:36:40;9.70;;;5.68;;
17967;SDS011;9109;48.050;11.696;2023-09-07T08:39:43;11.80;;;5.88;;
17967;SDS011;9109;48.050;11.696;2023-09-07T08:42:46;11.27;;;5.82;;
17967;SDS011;9109;48.050;11.696;2023-09-07T08:45:50;8.30;;;5.65;;
17967;SDS011;9109;48.050;11.696;2023-09-07T08:48:58;10.00;;;5.55;;
17967;SDS011;9109;48.050;11.696;2023-09-07T08:52:02;11.02;;;5.30;;
17967;SDS011;9109;48.050;11.696;2023-09-07T08:55:07;7.35;;;5.03;;
17967;SDS011;9109;48.050;11.696;2023-09-07T08:58:09;11.90;;;5.65;;
17967;SDS011;9109;48.050;11.696;2023-09-07T09:01:12;10.73;;;5.82;;
17967;SDS011;9109;48.050;11.696;2023-09-07T09:04:14;9.57;;;5.10;;
17967;SDS011;9109;48.050;11.696;2023-09-07T09:07:17;8.95;;;5.22;;
17967;SDS011;9109;48.050;11.696;2023-09-07T09:10:21;12.05;;;5.47;;
17967;SDS011;9109;48.050;11.696;2023-09-07T09:13:26;13.85;;;5.85;;
17967;SDS011;9109;48.050;11.696;2023-09-07T09:16:29;16.35;;;5.32;;
17967;SDS011;9109;48.050;11.696;2023-09-07T09:19:32;8.90;;;6.03;;
17967;SDS011;9109;48.050;11.696;2023-09-07T09:22:35;10.85;;;5.32;;
17967;SDS011;9109;48.050;11.696;2023-09-07T09:25:39;8.60;;;5.30;;
17967;SDS011;9109;48.050;11.696;2023-09-07T09:28:42;10.20;;;5.40;;
17967;SDS011;9109;48.050;11.696;2023-09-07T09:31:45;8.80;;;5.20;;
17967;SDS011;9109;48.050;11.696;2023-09-07T09:34:47;12.07;;;5.47;;
17967;SDS011;9109;48.050;11.696;2023-09-07T09:37:50;10.25;;;5.07;;
17967;SDS011;9109;48.050;11.696;2023-09-07T09:40:54;8.25;;;5.38;;
17967;SDS011;9109;48.050;11.696;2023-09-07T09:43:56;7.53;;;5.13;;
17967;SDS011;9109;48.050;11.696;2023-09-07T09:46:59;10.05;;;5.75;;
17967;SDS011;9109;48.050;11.696;2023-09-07T09:50:01;9.80;;;5.07;;
17967;SDS011;9109;48.050;11.696;2023-09-07T09:53:06;10.80;;;5.60;;
17967;SDS011;9109;48.050;11.696;2023-09-07T09:56:10;10.50;;;5.07;;
17967;SDS011;9109;48.050;11.696;2023-09-07T09:59:13;10.65;;;5.50;;
17967;SDS011;9109;48.050;11.696;2023-09-07T10:02:15;12.20;;;4.82;;
17967;SDS011;9109;48.050;11.696;2023-09-07T10:05:18;10.13;;;5.30;;
17967;SDS011;9109;48.050;11.696;2023-09-07T10:08:21;12.70;;;5.25;;
17967;SDS011;9109;48.050;11.696;2023-09-07T10:11:28;14.40;;;5.50;;
17967;SDS011;9109;48.050;11.696;2023-09-07T10:14:37;14.50;;;5.38;;
17967;SDS011;9109;48.050;11.696;2023-09-07T10:17:40;10.15;;;5.72;;
17967;SDS011;9109;48.050;11.696;2023-09-07T10:20:53;11.60;;;5.50;;
17967;SDS011;9109;48.050;11.696;2023-09-07T10:23:58;11.32;;;4.72;;
17967;SDS011;9109;48.050;11.696;2023-09-07T10:27:02;8.85;;;5.50;;
17967;SDS011;9109;48.050;11.696;2023-09-07T10:30:09;9.75;;;5.75;;
17967;SDS011;9109;48.050;11.696;2023-09-07T10:33:18;9.40;;;4.88;;
17967;SDS011;9109;48.050;11.696;2023-09-07T10:36:21;10.55;;;5.45;;
17967;SDS011;9109;48.050;11.696;2023-09-07T10:39:24;9.50;;;5.53;;
17967;SDS011;9109;48.050;11.696;2023-09-07T10:42:31;8.48;;;5.32;;
17967;SDS011;9109;48.050;11.696;2023-09-07T10:45:34;9.05;;;5.38;;
17967;SDS011;9109;48.050;11.696;2023-09-07T10:48:36;8.90;;;5.20;;
17967;SDS011;9109;48.050;11.696;2023-09-07T10:51:41;6.70;;;4.68;;
17967;SDS011;9109;48.050;11.696;2023-09-07T10:54:45;12.77;;;4.60;;
17967;SDS011;9109;48.050;11.696;2023-09-07T10:57:58;7.53;;;4.57;;
17967;SDS011;9109;48.050;11.696;2023-09-07T11:01:01;12.23;;;4.85;;
17967;SDS011;9109;48.050;11.696;2023-09-07T11:04:04;9.63;;;4.78;;
17967;SDS011;9109;48.050;11.696;2023-09-07T11:07:08;15.48;;;4.97;;
17967;SDS011;9109;48.050;11.696;2023-09-07T11:10:10;7.88;;;5.03;;
17967;SDS011;9109;48.050;11.696;2023-09-07T11:13:15;8.23;;;4.63;;
17967;SDS011;9109;48.050;11.696;2023-09-07T11:16:17;9.60;;;4.80;;
17967;SDS011;9109;48.050;11.696;2023-09-07T11:19:21;11.13;;;5.55;;
17967;SDS011;9109;48.050;11.696;2023-09-07T11:22:24;10.07;;;5.32;;
17967;SDS011;9109;48.050;11.696;2023-09-07T11:25:33;7.47;;;4.70;;
17967;SDS011;9109;48.050;11.696;2023-09-07T11:28:37;7.60;;;5.07;;
17967;SDS011;9109;48.050;11.696;2023-09-07T11:31:41;10.48;;;4.70;;
17967;SDS011;9109;48.050;11.696;2023-09-07T11:34:47;7.70;;;4.57;;
17967;SDS011;9109;48.050;11.696;2023-09-07T11:37:51;7.15;;;4.90;;
17967;SDS011;9109;48.050;11.696;2023-09-07T11:40:53;8.32;;;5.28;;
17967;SDS011;9109;48.050;11.696;2023-09-07T11:43:57;8.05;;;4.82;;
17967;SDS011;9109;48.050;11.696;2023-09-07T11:46:59;11.30;;;5.00;;
17967;SDS011;9109;48.050;11.696;2023-09-07T11:50:03;7.97;;;4.47;;
17967;SDS011;9109;48.050;11.696;2023-09-07T11:53:06;8.68;;;5.25;;
17967;SDS011;9109;48.050;11.696;2023-09-07T11:56:09;6.72;;;4.40;;
17967;SDS011;9109;48.050;11.696;2023-09-07T11:59:13;10.95;;;5.07;;
17967;SDS011;9109;48.050;11.696;2023-09-07T12:02:15;9.43;;;4.78;;
17967;SDS011;9109;48.050;11.696;2023-09-07T12:05:21;7.10;;;4.55;;
17967;SDS011;9109;48.050;11.696;2023-09-07T12:08:23;8.98;;;4.90;;
17967;SDS011;9109;48.050;11.696;2023-09-07T12:11:25;7.78;;;4.65;;
17967;SDS011;9109;48.050;11.696;2023-09-07T12:14:29;6.18;;;4.15;;
17967;SDS011;9109;48.050;11.696;2023-09-07T12:17:32;9.27;;;4.68;;
17967;SDS011;9109;48.050;11.696;2023-09-07T12:20:34;8.48;;;4.60;;
17967;SDS011;9109;48.050;11.696;2023-09-07T12:23:36;6.68;;;4.20;;
17967;SDS011;9109;48.050;11.696;2023-09-07T12:26:40;7.35;;;4.65;;
17967;SDS011;9109;48.050;11.696;2023-09-07T12:29:44;6.70;;;4.30;;
17967;SDS011;9109;48.050;11.696;2023-09-07T12:32:46;8.45;;;4.38;;
17967;SDS011;9109;48.050;11.696;2023-09-07T12:35:48;5.35;;;3.85;;
17967;SDS011;9109;48.050;11.696;2023-09-07T12:38:51;6.60;;;4.53;;
17967;SDS011;9109;48.050;11.696;2023-09-07T12:41:53;6.50;;;4.68;;
17967;SDS011;9109;48.050;11.696;2023-09-07T12:44:57;9.60;;;4.55;;
17967;SDS011;9109;48.050;11.696;2023-09-07T12:47:59;10.07;;;4.80;;
17967;SDS011;9109;48.050;11.696;2023-09-07T12:51:02;6.63;;;4.28;;
17967;SDS011;9109;48.050;11.696;2023-09-07T12:54:04;7.65;;;4.30;;
17967;SDS011;9109;48.050;11.696;2023-09-07T12:57:06;6.43;;;4.13;;
17967;SDS011;9109;48.050;11.696;2023-09-07T13:00:11;6.53;;;4.00;;
17967;SDS011;9109;48.050;11.696;2023-09-07T13:03:13;8.48;;;4.18;;
17967;SDS011;9109;48.050;11.696;2023-09-07T13:06:16;9.05;;;4.40;;
17967;SDS011;9109;48.050;11.696;2023-09-07T13:09:18;6.65;;;4.10;;
17967;SDS011;9109;48.050;11.696;2023-09-07T13:12:21;10.88;;;4.18;;
17967;SDS011;9109;48.050;11.696;2023-09-07T13:15:24;7.05;;;4.18;;
17967;SDS011;9109;48.050;11.696;2023-09-07T13:18:27;6.03;;;3.95;;
17967;SDS011;9109;48.050;11.696;2023-09-07T13:21:30;11.35;;;4.20;;
17967;SDS011;9109;48.050;11.696;2023-09-07T13:24:32;8.88;;;4.03;;
17967;SDS011;9109;48.050;11.696;2023-09-07T13:27:34;10.52;;;3.53;;
17967;SDS011;9109;48.050;11.696;2023-09-07T13:30:38;4.43;;;3.60;;
17967;SDS011;9109;48.050;11.696;2023-09-07T13:33:40;8.55;;;4.03;;
17967;SDS011;9109;48.050;11.696;2023-09-07T13:36:42;5.57;;;3.50;;
17967;SDS011;9109;48.050;11.696;2023-09-07T13:39:45;6.13;;;3.83;;
17967;SDS011;9109;48.050;11.696;2023-09-07T13:42:47;5.55;;;3.63;;
17967;SDS011;9109;48.050;11.696;2023-09-07T13:45:51;7.10;;;3.75;;
17967;SDS011;9109;48.050;11.696;2023-09-07T13:48:54;7.20;;;3.60;;
17967;SDS011;9109;48.050;11.696;2023-09-07T13:51:56;5.15;;;3.85;;
17967;SDS011;9109;48.050;11.696;2023-09-07T13:54:58;7.45;;;3.70;;
17967;SDS011;9109;48.050;11.696;2023-09-07T13:58:00;4.72;;;3.40;;
17967;SDS011;9109;48.050;11.696;2023-09-07T14:01:04;3.50;;;2.70;;
17967;SDS011;9109;48.050;11.696;2023-09-07T14:04:06;4.57;;;3.00;;
17967;SDS011;9109;48.050;11.696;2023-09-07T14:07:08;4.78;;;3.05;;
17967;SDS011;9109;48.050;11.696;2023-09-07T14:10:11;8.98;;;3.30;;
17967;SDS011;9109;48.050;11.696;2023-09-07T14:13:13;5.82;;;3.42;;
17967;SDS011;9109;48.050;11.696;2023-09-07T14:16:17;6.13;;;3.35;;
17967;SDS011;9109;48.050;11.696;2023-09-07T14:19:19;5.35;;;3.65;;
17967;SDS011;9109;48.050;11.696;2023-09-07T14:22:22;6.00;;;2.90;;
17967;SDS011;9109;48.050;11.696;2023-09-07T14:25:24;5.82;;;2.85;;
17967;SDS011;9109;48.050;11.696;2023-09-07T14:28:26;6.30;;;4.07;;
17967;SDS011;9109;48.050;11.696;2023-09-07T14:31:30;5.78;;;3.40;;
17967;SDS011;9109;48.050;11.696;2023-09-07T14:34:32;5.50;;;3.75;;
17967;SDS011;9109;48.050;11.696;2023-09-07T14:37:35;4.57;;;3.35;;
17967;SDS011;9109;48.050;11.696;2023-09-07T14:40:37;6.85;;;3.78;;
17967;SDS011;9109;48.050;11.696;2023-09-07T14:43:40;5.78;;;3.42;;
17967;SDS011;9109;48.050;11.696;2023-09-07T14:46:43;5.97;;;3.60;;
17967;SDS011;9109;48.050;11.696;2023-09-07T14:49:47;6.10;;;3.47;;
17967;SDS011;9109;48.050;11.696;2023-09-07T14:52:49;6.88;;;3.83;;
17967;SDS011;9109;48.050;11.696;2023-09-07T14:55:51;10.95;;;3.95;;
17967;SDS011;9109;48.050;11.696;2023-09-07T14:58:53;5.20;;;3.15;;
17967;SDS011;9109;48.050;11.696;2023-09-07T15:01:57;6.40;;;3.58;;
17967;SDS011;9109;48.050;11.696;2023-09-07T15:04:59;6.90;;;3.78;;
17967;SDS011;9109;48.050;11.696;2023-09-07T15:08:02;5.57;;;3.70;;
17967;SDS011;9109;48.050;11.696;2023-09-07T15:11:05;6.32;;;3.58;;
17967;SDS011;9109;48.050;11.696;2023-09-07T15:14:07;6.15;;;3.85;;
17967;SDS011;9109;48.050;11.696;2023-09-07T15:17:10;9.45;;;3.58;;
17967;SDS011;9109;48.050;11.696;2023-09-07T15:20:13;12.13;;;3.67;;
17967;SDS011;9109;48.050;11.696;2023-09-07T15:23:15;11.75;;;3.58;;
17967;SDS011;9109;48.050;11.696;2023-09-07T15:26:19;15.70;;;3.47;;
17967;SDS011;9109;48.050;11.696;2023-09-07T15:29:21;8.10;;;3.78;;
17967;SDS011;9109;48.050;11.696;2023-09-07T15:32:25;10.15;;;3.72;;
17967;SDS011;9109;48.050;11.696;2023-09-07T15:35:28;5.47;;;3.45;;
17967;SDS011;9109;48.050;11.696;2023-09-07T15:38:30;6.15;;;3.78;;
17967;SDS011;9109;48.050;11.696;2023-09-07T15:41:32;4.88;;;3.47;;
17967;SDS011;9109;48.050;11.696;2023-09-07T15:44:36;7.95;;;3.40;;
17967;SDS011;9109;48.050;11.696;2023-09-07T15:47:42;11.63;;;4.03;;
17967;SDS011;9109;48.050;11.696;2023-09-07T15:50:45;8.25;;;3.53;;
17967;SDS011;9109;48.050;11.696;2023-09-07T15:53:47;7.03;;;3.50;;
17967;SDS011;9109;48.050;11.696;2023-09-07T15:56:49;5.43;;;3.25;;
17967;SDS011;9109;48.050;11.696;2023-09-07T15:59:52;5.43;;;3.75;;
17967;SDS011;9109;48.050;11.696;2023-09-07T16:02:57;9.75;;;3.63;;
17967;SDS011;9109;48.050;11.696;2023-09-07T16:05:59;9.13;;;3.20;;
17967;SDS011;9109;48.050;11.696;2023-09-07T16:09:02;4.85;;;3.10;;
17967;SDS011;9109;48.050;11.696;2023-09-07T16:12:05;6.38;;;3.38;;
17967;SDS011;9109;48.050;11.696;2023-09-07T16:15:08;6.28;;;3.38;;
17967;SDS011;9109;48.050;11.696;2023-09-07T16:18:12;5.25;;;3.25;;
17967;SDS011;9109;48.050;11.696;2023-09-07T16:21:16;6.05;;;3.63;;
17967;SDS011;9109;48.050;11.696;2023-09-07T16:24:19;6.55;;;3.85;;
17967;SDS011;9109;48.050;11.696;2023-09-07T16:27:22;7.43;;;3.38;;
17967;SDS011;9109;48.050;11.696;2023-09-07T16:30:24;6.53;;;3.92;;
17967;SDS011;9109;48.050;11.696;2023-09-07T16:33:28;5.60;;;3.35;;
17967;SDS011;9109;48.050;11.696;2023-09-07T16:36:30;6.97;;;3.40;;
17967;SDS011;9109;48.050;11.696;2023-09-07T16:39:32;5.53;;;3.58;;
17967;SDS011;9109;48.050;11.696;2023-09-07T16:42:35;9.32;;;3.30;;
17967;SDS011;9109;48.050;11.696;2023-09-07T16:45:37;6.88;;;3.38;;
17967;SDS011;9109;48.050;11.696;2023-09-07T16:48:41;5.88;;;3.33;;
17967;SDS011;9109;48.050;11.696;2023-09-07T16:51:43;7.03;;;3.67;;
17967;SDS011;9109;48.050;11.696;2023-09-07T16:54:45;9.63;;;3.45;;
17967;SDS011;9109;48.050;11.696;2023-09-07T16:57:48;8.73;;;3.83;;
17967;SDS011;9109;48.050;11.696;2023-09-07T17:00:50;9.45;;;3.65;;
17967;SDS011;9109;48.050;11.696;2023-09-07T17:03:54;12.00;;;3.30;;
17967;SDS011;9109;48.050;11.696;2023-09-07T17:06:56;6.82;;;3.60;;
17967;SDS011;9109;48.050;11.696;2023-09-07T17:09:59;7.78;;;3.90;;
17967;SDS011;9109;48.050;11.696;2023-09-07T17:13:02;9.20;;;3.45;;
17967;SDS011;9109;48.050;11.696;2023-09-07T17:16:04;6.53;;;3.30;;
17967;SDS011;9109;48.050;11.696;2023-09-07T17:19:08;6.88;;;3.55;;
17967;SDS011;9109;48.050;11.696;2023-09-07T17:22:10;6.13;;;3.38;;
17967;SDS011;9109;48.050;11.696;2023-09-07T17:25:13;6.35;;;3.80;;
17967;SDS011;9109;48.050;11.696;2023-09-07T17:28:17;5.45;;;3.53;;
17967;SDS011;9109;48.050;11.696;2023-09-07T17:31:19;6.03;;;3.53;;
17967;SDS011;9109;48.050;11.696;2023-09-07T17:34:24;7.35;;;4.10;;
17967;SDS011;9109;48.050;11.696;2023-09-07T17:37:26;11.82;;;4.05;;
17967;SDS011;9109;48.050;11.696;2023-09-07T17:40:29;5.85;;;3.42;;
17967;SDS011;9109;48.050;11.696;2023-09-07T17:43:31;6.22;;;3.55;;
17967;SDS011;9109;48.050;11.696;2023-09-07T17:46:33;7.18;;;3.58;;
17967;SDS011;9109;48.050;11.696;2023-09-07T17:49:37;8.40;;;3.70;;
17967;SDS011;9109;48.050;11.696;2023-09-07T17:52:40;5.53;;;3.22;;
17967;SDS011;9109;48.050;11.696;2023-09-07T17:55:43;6.70;;;4.10;;
17967;SDS011;9109;48.050;11.696;2023-09-07T17:58:45;5.53;;;3.45;;
17967;SDS011;9109;48.050;11.696;2023-09-07T18:01:47;9.45;;;3.55;;
17967;SDS011;9109;48.050;11.696;2023-09-07T18:04:52;7.47;;;3.83;;
17967;SDS011;9109;48.050;11.696;2023-09-07T18:07:55;6.95;;;4.22;;
17967;SDS011;9109;48.050;11.696;2023-09-07T18:10:58;7.55;;;4.45;;
17967;SDS011;9109;48.050;11.696;2023-09-07T18:14:00;5.20;;;3.47;;
17967;SDS011;9109;48.050;11.696;2023-09-07T18:17:03;5.25;;;3.47;;
17967;SDS011;9109;48.050;11.696;2023-09-07T18:20:07;13.10;;;3.28;;
17967;SDS011;9109;48.050;11.696;2023-09-07T18:23:10;7.47;;;3.65;;
17967;SDS011;9109;48.050;11.696;2023-09-07T18:26:13;9.00;;;4.00;;
17967;SDS011;9109;48.050;11.696;2023-09-07T18:29:15;8.32;;;4.53;;
17967;SDS011;9109;48.050;11.696;2023-09-07T18:32:18;8.55;;;3.90;;
17967;SDS011;9109;48.050;11.696;2023-09-07T18:35:22;8.20;;;4.20;;
17967;SDS011;9109;48.050;11.696;2023-09-07T18:38:24;7.32;;;4.50;;
17967;SDS011;9109;48.050;11.696;2023-09-07T18:41:26;11.15;;;4.47;;
17967;SDS011;9109;48.050;11.696;2023-09-07T18:44:28;7.07;;;4.20;;
17967;SDS011;9109;48.050;11.696;2023-09-07T18:47:31;14.35;;;4.60;;
17967;SDS011;9109;48.050;11.696;2023-09-07T18:50:36;9.40;;;4.28;;
17967;SDS011;9109;48.050;11.696;2023-09-07T18:53:38;7.30;;;4.60;;
17967;SDS011;9109;48.050;11.696;2023-09-07T18:56:41;7.22;;;4.63;;
17967;SDS011;9109;48.050;11.696;2023-09-07T18:59:44;11.95;;;4.35;;
17967;SDS011;9109;48.050;11.696;2023-09-07T19:02:46;12.48;;;4.38;;
17967;SDS011;9109;48.050;11.696;2023-09-07T19:05:50;10.05;;;4.32;;
17967;SDS011;9109;48.050;11.696;2023-09-07T19:08:52;10.40;;;4.18;;
17967;SDS011;9109;48.050;11.696;2023-09-07T19:11:55;13.27;;;4.70;;
17967;SDS011;9109;48.050;11.696;2023-09-07T19:14:57;11.45;;;5.07;;
17967;SDS011;9109;48.050;11.696;2023-09-07T19:17:59;13.75;;;5.20;;
17967;SDS011;9109;48.050;11.696;2023-09-07T19:21:03;11.00;;;4.55;;
17967;SDS011;9109;48.050;11.696;2023-09-07T19:24:05;8.70;;;4.70;;
17967;SDS011;9109;48.050;11.696;2023-09-07T19:27:08;9.27;;;4.70;;
17967;SDS011;9109;48.050;11.696;2023-09-07T19:30:11;12.82;;;5.28;;
17967;SDS011;9109;48.050;11.696;2023-09-07T19:33:13;17.38;;;4.30;;
17967;SDS011;9109;48.050;11.696;2023-09-07T19:36:17;7.22;;;4.30;;
17967;SDS011;9109;48.050;11.696;2023-09-07T19:39:20;10.55;;;4.90;;
17967;SDS011;9109;48.050;11.696;2023-09-07T19:42:22;11.75;;;4.40;;
17967;SDS011;9109;48.050;11.696;2023-09-07T19:45:24;13.82;;;4.53;;
17967;SDS011;9109;48.050;11.696;2023-09-07T19:48:26;8.68;;;4.40;;
17967;SDS011;9109;48.050;11.696;2023-09-07T19:51:30;13.85;;;4.82;;
17967;SDS011;9109;48.050;11.696;2023-09-07T19:54:32;9.80;;;4.15;;
17967;SDS011;9109;48.050;11.696;2023-09-07T19:57:35;7.70;;;4.43;;
17967;SDS011;9109;48.050;11.696;2023-09-07T20:00:37;11.05;;;4.43;;
17967;SDS011;9109;48.050;11.696;2023-09-07T20:03:41;8.32;;;4.40;;
17967;SDS011;9109;48.050;11.696;2023-09-07T20:06:45;9.73;;;4.45;;
17967;SDS011;9109;48.050;11.696;2023-09-07T20:09:48;7.95;;;4.32;;
17967;SDS011;9109;48.050;11.696;2023-09-07T20:12:50;9.32;;;4.43;;
17967;SDS011;9109;48.050;11.696;2023-09-07T20:15:52;11.02;;;4.43;;
17967;SDS011;9109;48.050;11.696;2023-09-07T20:18:54;19.65;;;4.60;;
17967;SDS011;9109;48.050;11.696;2023-09-07T20:21:58;10.18;;;4.40;;
17967;SDS011;9109;48.050;11.696;2023-09-07T20:25:00;8.10;;;5.18;;
17967;SDS011;9109;48.050;11.696;2023-09-07T20:28:03;14.30;;;4.63;;
17967;SDS011;9109;48.050;11.696;2023-09-07T20:31:05;10.40;;;4.20;;
17967;SDS011;9109;48.050;11.696;2023-09-07T20:34:09;8.73;;;4.60;;
17967;SDS011;9109;48.050;11.696;2023-09-07T20:37:12;13.07;;;4.88;;
17967;SDS011;9109;48.050;11.696;2023-09-07T20:40:15;8.38;;;4.30;;
17967;SDS011;9109;48.050;11.696;2023-09-07T20:43:17;11.20;;;4.22;;
17967;SDS011;9109;48.050;11.696;2023-09-07T20:46:23;8.85;;;4.40;;
17967;SDS011;9109;48.050;11.696;2023-09-07T20:49:25;9.43;;;4.25;;
17967;SDS011;9109;48.050;11.696;2023-09-07T20:52:29;9.70;;;4.45;;
17967;SDS011;9109;48.050;11.696;2023-09-07T20:55:31;9.43;;;4.35;;
17967;SDS011;9109;48.050;11.696;2023-09-07T20:58:33;13.30;;;4.60;;
17967;SDS011;9109;48.050;11.696;2023-09-07T21:01:35;12.15;;;4.40;;
17967;SDS011;9109;48.050;11.696;2023-09-07T21:04:38;13.00;;;4.80;;
17967;SDS011;9109;48.050;11.696;2023-09-07T21:07:41;7.93;;;4.47;;
17967;SDS011;9109;48.050;11.696;2023-09-07T21:10:44;9.57;;;4.80;;
17967;SDS011;9109;48.050;11.696;2023-09-07T21:13:46;6.88;;;4.10;;
17967;SDS011;9109;48.050;11.696;2023-09-07T21:16:48;9.02;;;4.28;;
17967;SDS011;9109;48.050;11.696;2023-09-07T21:19:51;8.00;;;4.40;;
17967;SDS011;9109;48.050;11.696;2023-09-07T21:22:54;13.07;;;5.00;;
17967;SDS011;9109;48.050;11.696;2023-09-07T21:25:57;6.15;;;4.50;;
17967;SDS011;9109;48.050;11.696;2023-09-07T21:28:59;8.13;;;4.38;;
17967;SDS011;9109;48.050;11.696;2023-09-07T21:32:01;10.20;;;4.53;;
17967;SDS011;9109;48.050;11.696;2023-09-07T21:35:04;7.45;;;4.28;;
17967;SDS011;9109;48.050;11.696;2023-09-07T21:38:08;6.20;;;3.90;;
17967;SDS011;9109;48.050;11.696;2023-09-07T21:41:13;8.32;;;4.38;;
17967;SDS011;9109;48.050;11.696;2023-09-07T21:44:15;7.97;;;4.80;;
17967;SDS011;9109;48.050;11.696;2023-09-07T21:47:18;10.30;;;5.07;;
17967;SDS011;9109;48.050;11.696;2023-09-07T21:50:20;8.43;;;4.70;;
17967;SDS011;9109;48.050;11.696;2023-09-07T21:53:24;8.07;;;4.38;;
17967;SDS011;9109;48.050;11.696;2023-09-07T21:56:26;17.77;;;4.70;;
17967;SDS011;9109;48.050;11.696;2023-09-07T21:59:28;12.13;;;4.35;;
17967;SDS011;9109;48.050;11.696;2023-09-07T22:02:31;8.82;;;4.72;;
17967;SDS011;9109;48.050;11.696;2023-09-07T22:05:34;10.27;;;4.30;;
17967;SDS011;9109;48.050;11.696;2023-09-07T22:08:38;12.40;;;4.50;;
17967;SDS011;9109;48.050;11.696;2023-09-07T22:11:41;12.20;;;4.47;;
17967;SDS011;9109;48.050;11.696;2023-09-07T22:14:43;8.57;;;4.78;;
